LKPR/PRG METAR and TAF weather

Enter ICAO airport designator
Station Type Date Time Source
LKPR METAR 2019/08/24 17:30 UTC NOAA

LKPR 241730Z 06008KT 9999 FEW048 25/18 Q1021 NOSIG


Station Type Date Time Source
LKPR Decoded METAR 2019/08/24 17:30 UTC NOAA

Station name not available
Aug 24, 2019 - 01:30 PM EDT / 2019.08.24 1730 UTC
Wind: from the ENE (060 degrees) at 9 MPH (8 KT):0
Visibility: greater than 7 mile(s):0
Sky conditions: mostly clear
Temperature: 77 F (25 C)
Dew Point: 64 F (18 C)
Relative Humidity: 65%
Pressure (altimeter): 30.15 in. Hg (1021 hPa)
ob: LKPR 241730Z 06008KT 9999 FEW048 25/18 Q1021 NOSIG
cycle: 17

Station Type Date Time Source
LKPR TAF 2019/08/24 18:08 UTC NOAA

TAF LKPR 241700Z 2418/2600 08010KT 9999 SCT040
TEMPO 2418/2421 9000 SHRA FEW040TCU
BECMG 2421/2423 13006KT
TEMPO 2501/2506 5000 BR NSC
TEMPO 2512/2522 17014G26KT 5000 TSRA SCT042CB
TEMPO 2522/2600 VRB02KT

Example: see airport list